sensor_id;sensor_type;location;lat;lon;timestamp;P1;durP1;ratioP1;P2;durP2;ratioP2
18473;SDS011;30265;52.408;13.500;2022-07-12T00:05:37;6.95;;;3.50;;
18473;SDS011;30265;52.408;13.500;2022-07-12T00:15:59;7.72;;;4.00;;
18473;SDS011;30265;52.408;13.500;2022-07-12T00:26:22;9.63;;;3.97;;
18473;SDS011;30265;52.408;13.500;2022-07-12T00:36:44;7.85;;;4.03;;
18473;SDS011;30265;52.408;13.500;2022-07-12T00:47:08;8.23;;;3.55;;
18473;SDS011;30265;52.408;13.500;2022-07-12T00:57:46;7.68;;;3.80;;
18473;SDS011;30265;52.408;13.500;2022-07-12T01:08:10;6.45;;;3.50;;
18473;SDS011;30265;52.408;13.500;2022-07-12T01:18:33;9.90;;;3.45;;
18473;SDS011;30265;52.408;13.500;2022-07-12T01:28:57;13.93;;;6.32;;
18473;SDS011;30265;52.408;13.500;2022-07-12T01:39:20;7.20;;;4.00;;
18473;SDS011;30265;52.408;13.500;2022-07-12T01:49:43;6.63;;;3.83;;
18473;SDS011;30265;52.408;13.500;2022-07-12T02:00:05;8.38;;;4.30;;
18473;SDS011;30265;52.408;13.500;2022-07-12T02:10:29;8.25;;;3.80;;
18473;SDS011;30265;52.408;13.500;2022-07-12T02:20:51;7.10;;;4.15;;
18473;SDS011;30265;52.408;13.500;2022-07-12T02:31:14;6.15;;;3.90;;
18473;SDS011;30265;52.408;13.500;2022-07-12T02:41:36;8.85;;;3.97;;
18473;SDS011;30265;52.408;13.500;2022-07-12T02:52:00;10.27;;;4.53;;
18473;SDS011;30265;52.408;13.500;2022-07-12T03:02:21;5.28;;;3.25;;
18473;SDS011;30265;52.408;13.500;2022-07-12T03:12:45;10.55;;;3.60;;
18473;SDS011;30265;52.408;13.500;2022-07-12T03:23:07;9.95;;;3.33;;
18473;SDS011;30265;52.408;13.500;2022-07-12T03:33:31;5.28;;;3.10;;
18473;SDS011;30265;52.408;13.500;2022-07-12T03:43:52;5.53;;;2.95;;
18473;SDS011;30265;52.408;13.500;2022-07-12T03:54:15;5.10;;;3.10;;
18473;SDS011;30265;52.408;13.500;2022-07-12T04:04:37;9.48;;;3.95;;
18473;SDS011;30265;52.408;13.500;2022-07-12T04:15:00;11.73;;;4.88;;
18473;SDS011;30265;52.408;13.500;2022-07-12T04:25:22;8.90;;;3.38;;
18473;SDS011;30265;52.408;13.500;2022-07-12T04:35:46;5.82;;;3.50;;
18473;SDS011;30265;52.408;13.500;2022-07-12T04:46:08;5.65;;;2.88;;
18473;SDS011;30265;52.408;13.500;2022-07-12T04:56:32;6.90;;;2.70;;
18473;SDS011;30265;52.408;13.500;2022-07-12T05:06:54;7.97;;;2.38;;
18473;SDS011;30265;52.408;13.500;2022-07-12T05:17:17;7.00;;;1.98;;
18473;SDS011;30265;52.408;13.500;2022-07-12T05:27:42;4.75;;;2.00;;
18473;SDS011;30265;52.408;13.500;2022-07-12T05:38:05;4.30;;;2.10;;
18473;SDS011;30265;52.408;13.500;2022-07-12T05:48:28;3.87;;;1.90;;
18473;SDS011;30265;52.408;13.500;2022-07-12T05:58:51;3.05;;;1.63;;
18473;SDS011;30265;52.408;13.500;2022-07-12T06:09:13;4.60;;;1.73;;
18473;SDS011;30265;52.408;13.500;2022-07-12T06:19:35;4.93;;;1.55;;
18473;SDS011;30265;52.408;13.500;2022-07-12T06:29:57;6.10;;;1.60;;
18473;SDS011;30265;52.408;13.500;2022-07-12T06:40:20;2.95;;;1.40;;
18473;SDS011;30265;52.408;13.500;2022-07-12T06:50:42;4.10;;;1.40;;
18473;SDS011;30265;52.408;13.500;2022-07-12T07:01:05;2.47;;;1.40;;
18473;SDS011;30265;52.408;13.500;2022-07-12T07:11:27;3.95;;;1.50;;
18473;SDS011;30265;52.408;13.500;2022-07-12T07:21:50;3.30;;;1.58;;
18473;SDS011;30265;52.408;13.500;2022-07-12T07:32:17;3.60;;;1.40;;
18473;SDS011;30265;52.408;13.500;2022-07-12T07:42:40;2.95;;;1.42;;
18473;SDS011;30265;52.408;13.500;2022-07-12T07:53:02;4.57;;;1.63;;
18473;SDS011;30265;52.408;13.500;2022-07-12T08:03:26;1.92;;;1.38;;
18473;SDS011;30265;52.408;13.500;2022-07-12T08:13:51;6.95;;;1.13;;
18473;SDS011;30265;52.408;13.500;2022-07-12T08:24:14;1.95;;;1.33;;
18473;SDS011;30265;52.408;13.500;2022-07-12T08:34:36;2.30;;;1.17;;
18473;SDS011;30265;52.408;13.500;2022-07-12T08:45:08;2.17;;;1.30;;
18473;SDS011;30265;52.408;13.500;2022-07-12T08:55:32;1.90;;;1.33;;
18473;SDS011;30265;52.408;13.500;2022-07-12T09:05:56;1.40;;;1.20;;
18473;SDS011;30265;52.408;13.500;2022-07-12T09:16:20;2.63;;;1.40;;
18473;SDS011;30265;52.408;13.500;2022-07-12T09:26:44;2.53;;;1.33;;
18473;SDS011;30265;52.408;13.500;2022-07-12T09:47:31;1.80;;;1.10;;
18473;SDS011;30265;52.408;13.500;2022-07-12T09:57:54;1.98;;;1.30;;
18473;SDS011;30265;52.408;13.500;2022-07-12T10:08:18;2.72;;;1.40;;
18473;SDS011;30265;52.408;13.500;2022-07-12T10:18:41;3.10;;;1.30;;
18473;SDS011;30265;52.408;13.500;2022-07-12T10:29:05;3.65;;;1.35;;
18473;SDS011;30265;52.408;13.500;2022-07-12T10:39:28;5.35;;;1.88;;
18473;SDS011;30265;52.408;13.500;2022-07-12T10:50:00;5.75;;;1.45;;
18473;SDS011;30265;52.408;13.500;2022-07-12T11:00:22;2.83;;;1.50;;
18473;SDS011;30265;52.408;13.500;2022-07-12T11:10:55;2.60;;;1.20;;
18473;SDS011;30265;52.408;13.500;2022-07-12T11:21:17;1.87;;;1.20;;
18473;SDS011;30265;52.408;13.500;2022-07-12T11:31:41;1.60;;;1.40;;
18473;SDS011;30265;52.408;13.500;2022-07-12T11:42:03;2.42;;;1.30;;
18473;SDS011;30265;52.408;13.500;2022-07-12T11:52:28;1.42;;;1.20;;
18473;SDS011;30265;52.408;13.500;2022-07-12T12:02:50;2.05;;;1.00;;
18473;SDS011;30265;52.408;13.500;2022-07-12T12:13:17;3.53;;;1.50;;
18473;SDS011;30265;52.408;13.500;2022-07-12T12:23:40;2.30;;;1.50;;
18473;SDS011;30265;52.408;13.500;2022-07-12T12:34:10;4.18;;;1.02;;
18473;SDS011;30265;52.408;13.500;2022-07-12T12:44:34;2.30;;;1.50;;
18473;SDS011;30265;52.408;13.500;2022-07-12T12:54:57;2.60;;;1.20;;
18473;SDS011;30265;52.408;13.500;2022-07-12T13:05:41;1.45;;;1.05;;
18473;SDS011;30265;52.408;13.500;2022-07-12T13:16:05;4.60;;;1.27;;
18473;SDS011;30265;52.408;13.500;2022-07-12T13:26:29;3.53;;;1.20;;
18473;SDS011;30265;52.408;13.500;2022-07-12T13:36:53;1.92;;;1.48;;
18473;SDS011;30265;52.408;13.500;2022-07-12T13:47:18;3.63;;;1.30;;
18473;SDS011;30265;52.408;13.500;2022-07-12T13:57:42;2.80;;;1.10;;
18473;SDS011;30265;52.408;13.500;2022-07-12T14:08:14;2.35;;;1.10;;
18473;SDS011;30265;52.408;13.500;2022-07-12T14:18:50;2.45;;;1.27;;
18473;SDS011;30265;52.408;13.500;2022-07-12T14:29:14;5.28;;;1.30;;
18473;SDS011;30265;52.408;13.500;2022-07-12T14:39:52;2.60;;;1.17;;
18473;SDS011;30265;52.408;13.500;2022-07-12T14:50:23;1.45;;;1.10;;
18473;SDS011;30265;52.408;13.500;2022-07-12T15:00:46;1.48;;;1.15;;
18473;SDS011;30265;52.408;13.500;2022-07-12T15:11:13;3.25;;;1.42;;
18473;SDS011;30265;52.408;13.500;2022-07-12T15:21:44;4.43;;;1.40;;
18473;SDS011;30265;52.408;13.500;2022-07-12T15:32:39;2.03;;;1.30;;
18473;SDS011;30265;52.408;13.500;2022-07-12T15:43:04;1.30;;;1.13;;
18473;SDS011;30265;52.408;13.500;2022-07-12T15:53:27;1.10;;;1.00;;
18473;SDS011;30265;52.408;13.500;2022-07-12T16:03:52;2.72;;;1.20;;
18473;SDS011;30265;52.408;13.500;2022-07-12T16:14:24;2.30;;;1.20;;
18473;SDS011;30265;52.408;13.500;2022-07-12T16:24:51;2.85;;;1.10;;
18473;SDS011;30265;52.408;13.500;2022-07-12T16:35:13;8.15;;;1.40;;
18473;SDS011;30265;52.408;13.500;2022-07-12T16:45:37;2.42;;;1.25;;
18473;SDS011;30265;52.408;13.500;2022-07-12T16:56:00;4.50;;;1.40;;
18473;SDS011;30265;52.408;13.500;2022-07-12T17:06:23;2.92;;;1.50;;
18473;SDS011;30265;52.408;13.500;2022-07-12T17:16:48;2.90;;;1.60;;
18473;SDS011;30265;52.408;13.500;2022-07-12T17:27:11;1.48;;;0.93;;
18473;SDS011;30265;52.408;13.500;2022-07-12T17:37:34;2.15;;;1.45;;
18473;SDS011;30265;52.408;13.500;2022-07-12T17:48:03;2.38;;;1.60;;
18473;SDS011;30265;52.408;13.500;2022-07-12T17:58:26;5.05;;;1.90;;
18473;SDS011;30265;52.408;13.500;2022-07-12T18:09:06;2.75;;;1.83;;
18473;SDS011;30265;52.408;13.500;2022-07-12T18:19:28;2.35;;;1.50;;
18473;SDS011;30265;52.408;13.500;2022-07-12T18:29:51;2.30;;;1.50;;
18473;SDS011;30265;52.408;13.500;2022-07-12T18:40:16;2.60;;;1.60;;
18473;SDS011;30265;52.408;13.500;2022-07-12T18:50:39;2.70;;;1.50;;
18473;SDS011;30265;52.408;13.500;2022-07-12T19:01:01;3.03;;;1.90;;
18473;SDS011;30265;52.408;13.500;2022-07-12T19:11:24;4.00;;;1.90;;
18473;SDS011;30265;52.408;13.500;2022-07-12T19:21:46;6.13;;;1.70;;
18473;SDS011;30265;52.408;13.500;2022-07-12T19:32:09;3.50;;;2.05;;
18473;SDS011;30265;52.408;13.500;2022-07-12T19:42:31;2.70;;;1.83;;
18473;SDS011;30265;52.408;13.500;2022-07-12T19:52:55;1.75;;;1.50;;
18473;SDS011;30265;52.408;13.500;2022-07-12T20:03:18;4.28;;;1.98;;
18473;SDS011;30265;52.408;13.500;2022-07-12T20:13:42;2.90;;;1.67;;
18473;SDS011;30265;52.408;13.500;2022-07-12T20:24:05;5.35;;;2.20;;
18473;SDS011;30265;52.408;13.500;2022-07-12T20:34:29;4.13;;;2.10;;
18473;SDS011;30265;52.408;13.500;2022-07-12T20:44:51;11.50;;;3.33;;
18473;SDS011;30265;52.408;13.500;2022-07-12T20:55:15;5.22;;;2.10;;
18473;SDS011;30265;52.408;13.500;2022-07-12T21:05:42;4.03;;;1.92;;
18473;SDS011;30265;52.408;13.500;2022-07-12T21:16:06;2.85;;;1.70;;
18473;SDS011;30265;52.408;13.500;2022-07-12T21:26:30;3.38;;;1.95;;
18473;SDS011;30265;52.408;13.500;2022-07-12T21:36:57;4.07;;;2.30;;
18473;SDS011;30265;52.408;13.500;2022-07-12T21:47:19;6.72;;;1.90;;
18473;SDS011;30265;52.408;13.500;2022-07-12T21:57:48;4.40;;;2.13;;
18473;SDS011;30265;52.408;13.500;2022-07-12T22:08:10;4.10;;;2.40;;
18473;SDS011;30265;52.408;13.500;2022-07-12T22:18:34;5.97;;;3.22;;
18473;SDS011;30265;52.408;13.500;2022-07-12T22:28:56;4.83;;;2.67;;
18473;SDS011;30265;52.408;13.500;2022-07-12T22:39:19;4.63;;;2.13;;
18473;SDS011;30265;52.408;13.500;2022-07-12T22:49:41;3.72;;;2.25;;
18473;SDS011;30265;52.408;13.500;2022-07-12T23:00:05;4.45;;;2.30;;
18473;SDS011;30265;52.408;13.500;2022-07-12T23:10:32;5.72;;;2.45;;
18473;SDS011;30265;52.408;13.500;2022-07-12T23:20:55;4.45;;;2.08;;
18473;SDS011;30265;52.408;13.500;2022-07-12T23:31:17;5.38;;;2.40;;
18473;SDS011;30265;52.408;13.500;2022-07-12T23:41:40;4.50;;;2.40;;
18473;SDS011;30265;52.408;13.500;2022-07-12T23:52:03;6.20;;;3.00;;
